Time;durP1;ratioP1;P1;durP2;ratioP2;P2;SDS_P1;SDS_P2;PMS_P1;PMS_P2;Temp;Humidity;BMP_temperature;BMP_pressure;BME280_temperature;BME280_humidity;BME280_pressure;Samples;Min_cycle;Max_cycle;Signal;HPM_P1;HPM_P2
2021/09/04 00:01:37;;;;;;;14.63;8.75;;;15.50;95.10;;;;;;5052442;28;20390;-78
2021/09/04 00:04:03;;;;;;;23.42;13.27;;;15.40;95.30;;;;;;5052197;28;20535;-77
2021/09/04 00:06:29;;;;;;;19.23;10.75;;;15.40;95.60;;;;;;5054186;28;20100;-78
2021/09/04 00:08:55;;;;;;;26.08;14.70;;;15.40;95.60;;;;;;5052725;28;20405;-78
2021/09/04 00:11:20;;;;;;;23.23;13.65;;;15.40;95.60;;;;;;5052865;28;20020;-77
2021/09/04 00:13:46;;;;;;;18.15;10.80;;;15.30;95.50;;;;;;5053056;28;20483;-78
2021/09/04 00:16:12;;;;;;;19.42;10.57;;;15.30;95.60;;;;;;5052268;28;20017;-78
2021/09/04 00:18:37;;;;;;;13.25;8.80;;;15.30;96.10;;;;;;5052953;28;20028;-77
2021/09/04 00:21:03;;;;;;;26.70;14.50;;;15.20;95.90;;;;;;5052548;28;20047;-78
2021/09/04 00:23:29;;;;;;;19.88;10.68;;;15.30;96.10;;;;;;5054057;28;20072;-77
2021/09/04 00:25:54;;;;;;;18.83;11.02;;;15.20;95.90;;;;;;5057799;28;20477;-77
2021/09/04 00:28:20;;;;;;;17.92;10.20;;;15.10;96.00;;;;;;5055375;28;20029;-77
2021/09/04 00:30:46;;;;;;;21.63;12.43;;;15.10;96.20;;;;;;5052345;28;20029;-77
2021/09/04 00:33:12;;;;;;;26.15;15.73;;;15.10;96.20;;;;;;5053253;28;20451;-77
2021/09/04 00:35:38;;;;;;;28.58;16.73;;;15.10;96.20;;;;;;5053909;28;20017;-77
2021/09/04 00:38:03;;;;;;;21.25;12.52;;;15.00;96.00;;;;;;5052307;28;20064;-77
2021/09/04 00:40:30;;;;;;;21.05;12.73;;;15.00;95.90;;;;;;5052451;28;20465;-78
2021/09/04 00:42:55;;;;;;;23.85;15.60;;;15.00;95.80;;;;;;5052215;28;20031;-78
2021/09/04 00:45:21;;;;;;;28.30;17.65;;;14.90;95.60;;;;;;5051841;28;20020;-77
2021/09/04 00:47:57;;;;;;;24.05;15.13;;;14.90;95.80;;;;;;5052008;28;20033;-77
2021/09/04 00:50:23;;;;;;;14.02;9.25;;;14.80;95.90;;;;;;5052317;28;20082;-78
2021/09/04 00:52:49;;;;;;;22.13;11.18;;;14.80;96.10;;;;;;5052281;28;20171;-78
2021/09/04 00:55:17;;;;;;;30.70;16.40;;;14.90;96.30;;;;;;5053698;28;20513;-79
2021/09/04 00:57:43;;;;;;;26.25;14.85;;;14.80;96.40;;;;;;5053495;28;20021;-78
2021/09/04 01:00:09;;;;;;;35.85;17.05;;;14.80;96.20;;;;;;5052188;28;20544;-78
2021/09/04 01:02:34;;;;;;;22.27;13.27;;;14.80;96.30;;;;;;5051190;28;20029;-78
2021/09/04 01:05:01;;;;;;;20.20;14.02;;;14.80;96.30;;;;;;5052286;28;20523;-78
2021/09/04 01:07:27;;;;;;;25.50;13.52;;;14.80;96.40;;;;;;5052544;28;20539;-78
2021/09/04 01:09:53;;;;;;;12.93;8.18;;;14.80;96.60;;;;;;5051974;28;20017;-78
2021/09/04 01:12:19;;;;;;;21.80;12.35;;;14.80;96.70;;;;;;5051780;28;20029;-79
2021/09/04 01:14:44;;;;;;;14.57;9.63;;;14.90;96.70;;;;;;5052130;28;20033;-78
2021/09/04 01:17:10;;;;;;;23.25;13.80;;;14.90;96.60;;;;;;5051571;28;20112;-78
2021/09/04 01:19:36;;;;;;;17.33;10.40;;;14.80;96.60;;;;;;5055565;28;20039;-78
2021/09/04 01:22:02;;;;;;;20.45;10.38;;;14.80;96.70;;;;;;5058955;28;20032;-78
2021/09/04 01:24:27;;;;;;;22.95;12.65;;;14.80;96.70;;;;;;5077848;28;20285;-77
2021/09/04 01:26:53;;;;;;;22.77;12.00;;;14.80;96.70;;;;;;5061245;28;20462;-78
2021/09/04 01:29:19;;;;;;;18.45;9.82;;;14.80;96.70;;;;;;5057528;28;20025;-78
2021/09/04 01:31:45;;;;;;;14.77;8.70;;;14.70;96.70;;;;;;5056180;28;20362;-80
2021/09/04 01:34:10;;;;;;;25.42;15.80;;;14.60;96.80;;;;;;5057130;28;20037;-79
2021/09/04 01:36:38;;;;;;;20.10;11.27;;;14.60;96.70;;;;;;5058844;28;20049;-79
2021/09/04 01:39:06;;;;;;;12.68;7.82;;;14.60;96.80;;;;;;5055435;28;20025;-79
2021/09/04 01:41:33;;;;;;;16.35;9.48;;;14.70;96.90;;;;;;5056674;28;20449;-79
2021/09/04 01:44:00;;;;;;;14.18;9.13;;;14.70;96.90;;;;;;5056550;28;20025;-79
2021/09/04 01:46:26;;;;;;;21.88;12.13;;;14.60;96.80;;;;;;5056119;28;20525;-80
2021/09/04 01:48:52;;;;;;;13.40;8.02;;;14.60;96.80;;;;;;5056310;28;20394;-81
2021/09/04 01:51:18;;;;;;;18.25;9.80;;;14.60;96.90;;;;;;5056276;28;20028;-81
2021/09/04 01:53:45;;;;;;;23.52;13.10;;;14.60;96.90;;;;;;5057116;28;20033;-81
2021/09/04 01:56:11;;;;;;;24.02;13.07;;;14.60;96.90;;;;;;5056229;28;20017;-81
2021/09/04 01:58:36;;;;;;;15.88;9.20;;;14.50;96.90;;;;;;5056825;28;20533;-80
2021/09/04 02:01:03;;;;;;;24.13;13.60;;;14.60;97.10;;;;;;5055508;28;20033;-80
2021/09/04 02:03:29;;;;;;;20.23;11.77;;;14.60;97.00;;;;;;5056449;28;20056;-80
2021/09/04 02:05:54;;;;;;;15.23;9.20;;;14.50;96.90;;;;;;5055678;28;20021;-80
2021/09/04 02:08:20;;;;;;;24.67;12.68;;;14.50;97.00;;;;;;5055799;28;20025;-80
2021/09/04 02:10:46;;;;;;;17.00;10.13;;;14.50;97.00;;;;;;5055805;28;20009;-80
2021/09/04 02:13:11;;;;;;;28.33;15.57;;;14.40;97.00;;;;;;5055991;28;20044;-80
2021/09/04 02:15:37;;;;;;;28.13;14.45;;;14.40;97.00;;;;;;5061944;28;20041;-79
2021/09/04 02:18:03;;;;;;;15.75;8.38;;;14.40;96.90;;;;;;5068363;28;20374;-80
2021/09/04 02:20:28;;;;;;;24.60;13.35;;;14.30;96.80;;;;;;5061515;28;20481;-80
2021/09/04 02:22:54;;;;;;;22.67;12.77;;;14.30;97.00;;;;;;5055404;28;20024;-81
2021/09/04 02:25:20;;;;;;;20.40;11.60;;;14.20;96.80;;;;;;5055578;28;20024;-80
2021/09/04 02:27:45;;;;;;;32.58;18.48;;;14.20;97.10;;;;;;5055391;28;20425;-80
2021/09/04 02:30:11;;;;;;;22.33;12.90;;;14.20;97.30;;;;;;5055070;28;20452;-80
2021/09/04 02:32:38;;;;;;;22.77;12.23;;;14.20;97.30;;;;;;5055305;28;20119;-80
2021/09/04 02:35:05;;;;;;;33.97;18.58;;;14.20;97.40;;;;;;5055154;28;20029;-79
2021/09/04 02:37:31;;;;;;;25.35;13.40;;;14.20;97.50;;;;;;5055154;28;20055;-80
2021/09/04 02:39:56;;;;;;;26.98;15.50;;;14.20;97.30;;;;;;5055541;28;20097;-80
2021/09/04 02:42:22;;;;;;;38.42;17.77;;;14.20;97.50;;;;;;5054798;28;20017;-80
2021/09/04 02:44:48;;;;;;;24.02;12.57;;;14.30;97.60;;;;;;5054660;28;20017;-80
2021/09/04 02:47:13;;;;;;;33.35;18.75;;;14.30;97.70;;;;;;5054598;28;20056;-79
2021/09/04 02:49:39;;;;;;;43.08;21.23;;;14.30;97.60;;;;;;5054652;28;20028;-79
2021/09/04 02:52:05;;;;;;;17.95;10.23;;;14.30;97.40;;;;;;5057955;28;20490;-79
2021/09/04 02:54:30;;;;;;;35.03;19.58;;;14.30;97.60;;;;;;5055345;28;20434;-79
2021/09/04 02:56:56;;;;;;;24.98;13.45;;;14.40;97.70;;;;;;5054936;28;20049;-79
2021/09/04 02:59:22;;;;;;;20.85;11.18;;;14.40;97.70;;;;;;5055119;28;20473;-81
2021/09/04 03:01:47;;;;;;;18.27;11.93;;;14.40;97.80;;;;;;5054874;28;20021;-80
2021/09/04 03:04:13;;;;;;;34.53;20.42;;;14.40;97.60;;;;;;5055073;28;20082;-80
2021/09/04 03:06:39;;;;;;;39.85;23.02;;;14.40;97.60;;;;;;5055393;28;20013;-81
2021/09/04 03:09:04;;;;;;;21.65;13.18;;;14.40;97.60;;;;;;5054908;28;20021;-80
2021/09/04 03:11:30;;;;;;;37.38;20.55;;;14.30;97.50;;;;;;5054888;28;20045;-79
2021/09/04 03:13:56;;;;;;;31.58;17.05;;;14.30;97.30;;;;;;5055217;28;20132;-80
2021/09/04 03:16:21;;;;;;;36.88;20.58;;;14.30;97.30;;;;;;5054876;28;20120;-80
2021/09/04 03:18:47;;;;;;;32.53;15.73;;;14.20;97.20;;;;;;5055518;28;20473;-80
2021/09/04 03:21:13;;;;;;;22.30;12.45;;;14.30;97.50;;;;;;5055774;28;20017;-80
2021/09/04 03:23:38;;;;;;;32.95;17.80;;;14.30;97.60;;;;;;5055892;28;20381;-80
2021/09/04 03:26:04;;;;;;;30.75;18.05;;;14.30;97.60;;;;;;5055036;28;20027;-80
2021/09/04 03:28:30;;;;;;;30.92;16.40;;;14.40;97.70;;;;;;5065915;28;20012;-78
2021/09/04 03:30:55;;;;;;;30.33;16.45;;;14.40;97.80;;;;;;5068440;28;20079;-80
2021/09/04 03:33:21;;;;;;;18.17;9.80;;;14.40;97.80;;;;;;5054733;28;20366;-79
2021/09/04 03:35:47;;;;;;;21.65;12.40;;;14.60;97.90;;;;;;5055482;28;20021;-79
2021/09/04 03:38:13;;;;;;;21.77;12.73;;;14.50;97.70;;;;;;5058438;28;20017;-79
2021/09/04 03:40:38;;;;;;;31.23;18.48;;;14.50;97.60;;;;;;5053871;28;20108;-80
2021/09/04 03:43:04;;;;;;;27.20;14.27;;;14.50;97.60;;;;;;5054139;28;20025;-80
2021/09/04 03:45:30;;;;;;;22.77;12.95;;;14.30;97.60;;;;;;5054214;28;20025;-80
2021/09/04 03:47:55;;;;;;;18.73;10.90;;;14.40;97.80;;;;;;5054332;28;20025;-79
2021/09/04 03:50:21;;;;;;;12.68;7.80;;;14.40;97.90;;;;;;5054549;28;20025;-80
2021/09/04 03:52:47;;;;;;;22.55;12.30;;;14.50;98.10;;;;;;5056801;28;20025;-80
2021/09/04 03:55:12;;;;;;;19.17;10.55;;;14.50;98.00;;;;;;5053198;28;20424;-79
2021/09/04 03:57:38;;;;;;;32.13;19.13;;;14.60;98.10;;;;;;5055026;28;20032;-80
2021/09/04 04:00:05;;;;;;;26.23;14.88;;;14.50;97.90;;;;;;5054281;28;20028;-79
2021/09/04 04:02:31;;;;;;;26.20;15.68;;;14.50;97.60;;;;;;5053613;28;20074;-79
2021/09/04 04:04:56;;;;;;;30.15;16.90;;;14.50;97.70;;;;;;5055866;28;20029;-79
2021/09/04 04:07:22;;;;;;;33.50;19.67;;;14.50;97.80;;;;;;5058634;28;20463;-78
2021/09/04 04:09:48;;;;;;;25.98;16.02;;;14.60;97.70;;;;;;5061156;28;20104;-80
2021/09/04 04:12:13;;;;;;;17.98;10.82;;;14.60;97.60;;;;;;5053435;28;20112;-79
2021/09/04 04:14:39;;;;;;;19.63;12.07;;;14.60;97.70;;;;;;5053082;28;20035;-79
2021/09/04 04:17:05;;;;;;;33.30;20.20;;;14.60;97.70;;;;;;5053518;28;20067;-80
2021/09/04 04:19:30;;;;;;;31.77;16.75;;;14.70;97.70;;;;;;5053060;28;20028;-79
2021/09/04 04:21:56;;;;;;;27.33;16.17;;;14.70;97.70;;;;;;5053817;28;20033;-79
2021/09/04 04:24:21;;;;;;;24.40;14.55;;;14.70;97.50;;;;;;5052675;28;20492;-79
2021/09/04 04:26:47;;;;;;;20.33;10.77;;;14.70;97.20;;;;;;5052854;28;20029;-80
2021/09/04 04:29:13;;;;;;;26.38;14.57;;;14.60;97.20;;;;;;5052701;28;20021;-79
2021/09/04 04:31:39;;;;;;;32.13;18.60;;;14.60;97.20;;;;;;5052621;28;20025;-79
2021/09/04 04:34:05;;;;;;;35.25;20.83;;;14.60;97.50;;;;;;5053093;28;20029;-80
2021/09/04 04:36:33;;;;;;;20.05;13.48;;;14.60;97.50;;;;;;5052859;28;20033;-79
2021/09/04 04:38:58;;;;;;;24.45;13.90;;;14.60;97.50;;;;;;5052403;28;20029;-79
2021/09/04 04:41:24;;;;;;;27.80;16.58;;;14.60;97.50;;;;;;5052802;28;20029;-79
2021/09/04 04:43:49;;;;;;;18.23;11.73;;;14.60;97.40;;;;;;5053607;28;20029;-79
2021/09/04 04:46:15;;;;;;;23.15;12.70;;;14.60;97.40;;;;;;5054738;28;20021;-79
2021/09/04 04:48:41;;;;;;;16.98;10.63;;;14.60;97.40;;;;;;5052963;28;20035;-78
2021/09/04 04:51:06;;;;;;;12.82;7.70;;;14.60;97.40;;;;;;5053328;28;20453;-79
2021/09/04 04:53:32;;;;;;;17.02;10.02;;;14.60;97.40;;;;;;5051907;28;20086;-78
2021/09/04 04:55:59;;;;;;;19.65;12.23;;;14.60;97.50;;;;;;5052134;28;20032;-78
2021/09/04 04:58:25;;;;;;;30.00;17.77;;;14.70;97.60;;;;;;5052544;28;20021;-78
2021/09/04 05:00:51;;;;;;;28.67;15.93;;;14.70;97.60;;;;;;5052997;28;20071;-78
2021/09/04 05:03:17;;;;;;;22.67;12.43;;;14.70;97.50;;;;;;5052856;28;20020;-79
2021/09/04 05:05:42;;;;;;;32.28;18.77;;;14.70;97.50;;;;;;5053595;28;20031;-79
2021/09/04 05:08:10;;;;;;;32.15;17.80;;;14.70;97.70;;;;;;5052052;28;20461;-78
2021/09/04 05:10:35;;;;;;;32.53;17.08;;;14.70;97.30;;;;;;5053827;28;20032;-78
2021/09/04 05:13:01;;;;;;;26.25;15.35;;;14.60;97.70;;;;;;5052296;28;20033;-80
2021/09/04 05:15:27;;;;;;;28.52;16.60;;;14.70;97.40;;;;;;5052584;28;20118;-80
2021/09/04 05:17:52;;;;;;;29.15;16.67;;;14.70;97.30;;;;;;5052842;28;20017;-80
2021/09/04 05:20:18;;;;;;;17.45;10.50;;;14.70;97.20;;;;;;5052889;28;20461;-79
2021/09/04 05:22:46;;;;;;;26.33;16.25;;;14.70;97.30;;;;;;5052194;28;20061;-79
2021/09/04 05:25:12;;;;;;;26.45;15.02;;;14.70;97.20;;;;;;5053195;28;20021;-79
2021/09/04 05:27:38;;;;;;;25.98;14.43;;;14.70;97.30;;;;;;5053836;28;20029;-77
2021/09/04 05:30:07;;;;;;;11.93;7.00;;;14.70;97.40;;;;;;5054436;28;20056;-79
2021/09/04 05:32:33;;;;;;;20.52;11.77;;;14.80;97.40;;;;;;5053374;28;20082;-79
2021/09/04 05:35:01;;;;;;;17.65;9.43;;;14.80;97.40;;;;;;5068115;28;20025;-78
2021/09/04 05:37:27;;;;;;;28.83;16.08;;;14.80;97.50;;;;;;5056755;28;20031;-78
2021/09/04 05:39:53;;;;;;;16.15;9.35;;;14.80;97.40;;;;;;5052834;28;20084;-79
2021/09/04 05:42:19;;;;;;;31.67;16.63;;;14.90;97.60;;;;;;5053074;28;20059;-79
2021/09/04 05:44:44;;;;;;;37.17;21.05;;;14.80;97.60;;;;;;5053047;28;20021;-79
2021/09/04 05:47:11;;;;;;;21.95;14.27;;;14.80;97.50;;;;;;5052813;28;20121;-79
2021/09/04 05:49:36;;;;;;;33.83;20.02;;;14.80;97.40;;;;;;5052354;28;20032;-79
2021/09/04 05:52:02;;;;;;;35.35;20.58;;;14.90;97.50;;;;;;5052658;28;20029;-77
2021/09/04 05:54:28;;;;;;;22.40;13.23;;;14.80;97.10;;;;;;5054127;28;20076;-79
2021/09/04 05:56:54;;;;;;;21.33;11.98;;;14.80;97.20;;;;;;5057109;28;20079;-78
2021/09/04 05:59:19;;;;;;;33.20;20.08;;;14.90;97.20;;;;;;5061761;28;20017;-79
2021/09/04 06:01:45;;;;;;;19.67;11.57;;;14.90;97.00;;;;;;5054731;28;20021;-79
2021/09/04 06:04:14;;;;;;;12.02;7.35;;;14.90;97.00;;;;;;5052816;28;20116;-79
2021/09/04 06:06:39;;;;;;;33.33;18.83;;;15.00;97.30;;;;;;5056567;28;20086;-79
2021/09/04 06:09:05;;;;;;;31.55;17.50;;;15.00;96.80;;;;;;5054892;28;20063;-79
2021/09/04 06:11:31;;;;;;;16.25;10.02;;;14.90;96.70;;;;;;5054948;28;20029;-80
2021/09/04 06:13:58;;;;;;;33.95;22.23;;;14.90;96.70;;;;;;5054819;28;20480;-80
2021/09/04 06:16:27;;;;;;;25.35;14.07;;;14.90;96.50;;;;;;5055446;28;20119;-79
2021/09/04 06:18:53;;;;;;;18.35;9.60;;;14.90;96.50;;;;;;5055941;28;20094;-79
2021/09/04 06:21:18;;;;;;;27.27;18.13;;;15.00;96.50;;;;;;5055705;28;20025;-78
2021/09/04 06:23:44;;;;;;;18.77;11.05;;;15.00;96.10;;;;;;5054920;28;20040;-79
2021/09/04 06:26:10;;;;;;;18.60;10.77;;;15.10;96.90;;;;;;5056082;28;20017;-78
2021/09/04 06:28:36;;;;;;;33.60;20.33;;;15.10;96.60;;;;;;5056055;28;20039;-78
2021/09/04 06:31:01;;;;;;;23.17;15.05;;;15.10;96.40;;;;;;5055635;28;20427;-79
2021/09/04 06:33:27;;;;;;;14.48;9.32;;;15.10;96.10;;;;;;5056382;28;20039;-79
2021/09/04 06:35:53;;;;;;;9.25;5.82;;;15.20;96.70;;;;;;5055783;28;20021;-78
2021/09/04 06:38:20;;;;;;;18.88;11.65;;;15.20;96.80;;;;;;5055664;28;20029;-79
2021/09/04 06:40:46;;;;;;;15.82;9.57;;;15.20;96.40;;;;;;5055978;28;20036;-80
2021/09/04 06:43:12;;;;;;;27.55;15.20;;;15.20;96.40;;;;;;5055988;28;20025;-79
2021/09/04 06:45:38;;;;;;;35.50;19.55;;;15.20;96.40;;;;;;5055575;28;20021;-79
2021/09/04 06:48:04;;;;;;;13.77;8.70;;;15.20;95.80;;;;;;5056613;28;20021;-79
2021/09/04 06:50:37;;;;;;;13.55;8.13;;;15.20;96.20;;;;;;5055661;28;20029;-80
2021/09/04 06:53:03;;;;;;;12.95;8.18;;;15.20;96.40;;;;;;5056100;28;20036;-78
2021/09/04 06:55:42;;;;;;;24.33;16.25;;;15.20;96.20;;;;;;5056798;28;20500;-78
2021/09/04 06:58:08;;;;;;;16.83;8.85;;;15.20;95.90;;;;;;5055448;28;20128;-79
2021/09/04 07:00:33;;;;;;;14.60;9.38;;;15.20;95.80;;;;;;5053820;28;20056;-78
2021/09/04 07:02:59;;;;;;;23.98;13.82;;;15.30;96.00;;;;;;5055841;28;20087;-78
2021/09/04 07:05:27;;;;;;;27.88;17.77;;;15.40;95.90;;;;;;5056127;28;20045;-79
2021/09/04 07:07:53;;;;;;;30.17;16.77;;;15.40;95.70;;;;;;5055338;28;20112;-78
2021/09/04 07:10:18;;;;;;;21.08;12.43;;;15.40;95.50;;;;;;5054875;28;20067;-78
2021/09/04 07:13:02;;;;;;;11.55;7.03;;;15.50;95.40;;;;;;5057214;28;20032;-78
2021/09/04 07:15:27;;;;;;;18.15;11.88;;;15.50;95.70;;;;;;5058025;28;20025;-78
2021/09/04 07:17:53;;;;;;;25.20;16.80;;;15.50;95.20;;;;;;5055035;28;20127;-80
2021/09/04 07:20:18;;;;;;;17.27;11.07;;;15.50;94.70;;;;;;5055515;28;20048;-78
2021/09/04 07:22:45;;;;;;;15.75;9.18;;;15.40;94.80;;;;;;5054895;28;20040;-78
2021/09/04 07:25:11;;;;;;;18.05;11.38;;;15.40;95.50;;;;;;5056188;28;20021;-78
2021/09/04 07:27:39;;;;;;;10.73;6.47;;;15.50;95.40;;;;;;5053241;28;20488;-77
2021/09/04 07:30:06;;;;;;;23.45;12.63;;;15.50;95.70;;;;;;5054041;28;20112;-77
2021/09/04 07:32:31;;;;;;;20.33;10.05;;;15.60;95.60;;;;;;5054781;28;20159;-78
2021/09/04 07:34:57;;;;;;;27.58;17.27;;;15.70;95.50;;;;;;5055505;28;20025;-78
2021/09/04 07:37:23;;;;;;;19.35;12.98;;;15.70;94.00;;;;;;5057750;28;20017;-79
2021/09/04 07:39:49;;;;;;;24.98;16.48;;;15.70;93.90;;;;;;5064513;28;20036;-78
2021/09/04 07:42:14;;;;;;;19.05;12.15;;;15.70;91.80;;;;;;5055918;28;20021;-79
2021/09/04 07:44:40;;;;;;;22.75;14.05;;;15.80;93.90;;;;;;5059883;28;20025;-79
2021/09/04 07:47:06;;;;;;;24.83;16.33;;;15.80;93.60;;;;;;5061903;28;20032;-76
2021/09/04 07:49:31;;;;;;;25.98;19.13;;;15.80;91.70;;;;;;5058169;28;20020;-78
2021/09/04 07:51:57;;;;;;;33.88;18.75;;;15.70;90.20;;;;;;5053717;28;20025;-78
2021/09/04 07:54:23;;;;;;;26.90;17.33;;;15.70;91.90;;;;;;5053227;28;20512;-78
2021/09/04 07:56:49;;;;;;;27.63;18.48;;;15.80;90.90;;;;;;5054211;28;20025;-77
2021/09/04 07:59:14;;;;;;;29.10;17.52;;;15.70;90.00;;;;;;5054860;28;20025;-78
2021/09/04 08:01:40;;;;;;;27.90;17.65;;;15.80;89.80;;;;;;5054000;28;20021;-78
2021/09/04 08:04:05;;;;;;;32.10;18.63;;;15.80;88.60;;;;;;5054026;28;20029;-78
2021/09/04 08:06:31;;;;;;;20.13;12.85;;;15.80;87.80;;;;;;5053081;28;20028;-78
2021/09/04 08:08:57;;;;;;;24.25;15.85;;;15.80;90.90;;;;;;5055805;28;20043;-78
2021/09/04 08:11:22;;;;;;;22.73;15.73;;;15.90;89.40;;;;;;5053162;28;20024;-78
2021/09/04 08:13:48;;;;;;;23.75;15.63;;;16.00;88.30;;;;;;5053993;28;20449;-78
2021/09/04 08:16:13;;;;;;;24.85;16.77;;;16.00;87.30;;;;;;5053952;28;20039;-78
2021/09/04 08:18:39;;;;;;;25.27;14.55;;;16.10;88.50;;;;;;5052786;28;20029;-78
2021/09/04 08:21:04;;;;;;;28.85;16.80;;;16.20;86.90;;;;;;5054952;28;20049;-78
2021/09/04 08:23:30;;;;;;;22.30;13.55;;;16.30;87.40;;;;;;5053706;28;20028;-78
2021/09/04 08:25:56;;;;;;;20.70;14.88;;;16.40;89.40;;;;;;5052139;28;20028;-78
2021/09/04 08:28:21;;;;;;;24.08;14.88;;;16.50;85.80;;;;;;5052238;28;20024;-78
2021/09/04 08:30:48;;;;;;;23.52;14.63;;;16.60;86.40;;;;;;5053651;28;20063;-80
2021/09/04 08:33:14;;;;;;;18.02;12.43;;;16.60;85.40;;;;;;5055487;28;20037;-78
2021/09/04 08:35:40;;;;;;;23.02;12.70;;;16.70;87.50;;;;;;5053229;28;20093;-79
2021/09/04 08:38:09;;;;;;;21.90;15.60;;;16.90;88.60;;;;;;5054141;28;20029;-79
2021/09/04 08:40:43;;;;;;;15.85;8.75;;;17.10;87.70;;;;;;5055333;28;20048;-78
2021/09/04 08:43:09;;;;;;;25.52;15.48;;;17.40;90.50;;;;;;5055735;28;20032;-79
2021/09/04 08:45:35;;;;;;;16.45;11.02;;;17.50;83.60;;;;;;5053101;28;20032;-79
2021/09/04 08:48:01;;;;;;;18.98;13.65;;;17.70;90.90;;;;;;5053419;28;20021;-80
2021/09/04 08:50:27;;;;;;;20.75;12.60;;;17.90;84.90;;;;;;5053256;28;20116;-79
2021/09/04 08:52:54;;;;;;;19.98;13.43;;;18.10;84.10;;;;;;5053596;28;20057;-78
2021/09/04 08:55:21;;;;;;;15.57;11.07;;;18.20;83.50;;;;;;5054084;28;20025;-78
2021/09/04 08:57:48;;;;;;;20.08;14.25;;;18.50;88.00;;;;;;5052141;28;20036;-78
2021/09/04 09:00:29;;;;;;;13.88;9.20;;;18.60;78.10;;;;;;5053172;28;20083;-79
2021/09/04 09:02:56;;;;;;;15.63;9.40;;;18.80;87.30;;;;;;5053314;28;20055;-79
2021/09/04 09:05:22;;;;;;;17.70;12.57;;;19.00;86.50;;;;;;5052605;28;20024;-79
2021/09/04 09:07:48;;;;;;;22.10;12.95;;;19.10;74.40;;;;;;5052002;28;20399;-79
2021/09/04 09:10:22;;;;;;;16.67;12.07;;;19.10;73.70;;;;;;5052050;28;20029;-79
2021/09/04 09:12:51;;;;;;;21.20;13.95;;;19.00;73.70;;;;;;5051717;28;20533;-79
2021/09/04 09:15:22;;;;;;;17.75;11.63;;;19.10;73.20;;;;;;5051963;28;20017;-79
2021/09/04 09:18:13;;;;;;;17.88;11.50;;;19.20;78.30;;;;;;5051452;28;20263;-79
2021/09/04 09:20:41;;;;;;;15.65;9.85;;;19.30;76.40;;;;;;5052171;28;20032;-79
2021/09/04 09:23:08;;;;;;;14.20;9.05;;;19.30;77.10;;;;;;5052945;28;20071;-78
2021/09/04 09:25:36;;;;;;;14.13;8.98;;;19.50;79.50;;;;;;5051844;28;20021;-79
2021/09/04 09:28:06;;;;;;;13.45;7.93;;;19.80;81.60;;;;;;5051702;28;20098;-77
2021/09/04 09:30:41;;;;;;;14.02;9.25;;;20.30;81.30;;;;;;5052583;28;20017;-78
2021/09/04 09:33:09;;;;;;;13.75;8.43;;;20.70;76.60;;;;;;5054076;28;20054;-79
2021/09/04 09:35:44;;;;;;;18.67;11.82;;;20.90;77.60;;;;;;5058202;28;20461;-82
2021/09/04 09:38:12;;;;;;;15.55;10.95;;;21.00;68.70;;;;;;5064079;28;20021;-81
2021/09/04 09:40:39;;;;;;;16.23;9.50;;;21.20;69.10;;;;;;5063614;28;20150;-80
2021/09/04 09:43:16;;;;;;;13.23;9.50;;;21.40;72.40;;;;;;5062156;28;20055;-80
2021/09/04 09:45:45;;;;;;;18.05;10.90;;;21.50;70.50;;;;;;5070939;28;20032;-80
2021/09/04 09:48:10;;;;;;;19.73;10.65;;;21.60;72.00;;;;;;5057440;28;20098;-81
2021/09/04 09:50:37;;;;;;;13.82;9.38;;;21.80;68.70;;;;;;5055778;28;20083;-82
2021/09/04 09:53:07;;;;;;;14.30;8.82;;;22.00;66.10;;;;;;5056147;28;20440;-80
2021/09/04 09:55:33;;;;;;;16.92;11.73;;;22.10;71.70;;;;;;5056134;28;20021;-80
2021/09/04 09:57:59;;;;;;;18.60;10.65;;;22.30;65.30;;;;;;5057054;28;20023;-80
2021/09/04 10:00:27;;;;;;;16.02;9.30;;;22.40;66.60;;;;;;5056821;28;20021;-80
2021/09/04 10:03:00;;;;;;;12.07;7.78;;;22.60;70.00;;;;;;5055924;28;20033;-80
2021/09/04 10:05:28;;;;;;;16.45;9.93;;;22.70;67.30;;;;;;5054754;28;20016;-79
2021/09/04 10:07:54;;;;;;;19.05;11.73;;;23.00;65.50;;;;;;5055208;28;20031;-80
2021/09/04 10:10:43;;;;;;;14.75;10.13;;;23.10;60.60;;;;;;5055159;28;20025;-80
2021/09/04 10:13:11;;;;;;;13.27;9.50;;;23.10;61.90;;;;;;5055333;28;20532;-80
2021/09/04 10:15:38;;;;;;;16.42;11.43;;;23.00;62.20;;;;;;5054695;28;20022;-79
2021/09/04 10:18:06;;;;;;;11.02;7.22;;;23.00;57.50;;;;;;5054941;28;20222;-81
2021/09/04 10:20:33;;;;;;;13.65;8.43;;;22.80;66.00;;;;;;5056827;28;20041;-80
2021/09/04 10:23:19;;;;;;;14.43;9.85;;;22.70;66.90;;;;;;5057992;28;20032;-79
2021/09/04 10:25:45;;;;;;;14.57;9.15;;;22.70;62.90;;;;;;5056358;28;20029;-80
2021/09/04 10:28:10;;;;;;;12.02;7.38;;;22.80;61.40;;;;;;5054724;28;20119;-80
2021/09/04 10:30:42;;;;;;;12.18;7.18;;;23.20;66.30;;;;;;5054314;28;20421;-79
2021/09/04 10:33:18;;;;;;;14.07;8.85;;;23.60;66.10;;;;;;5058464;28;20454;-79
2021/09/04 10:35:49;;;;;;;11.80;6.90;;;23.90;59.40;;;;;;5057476;28;20044;-80
2021/09/04 10:38:18;;;;;;;13.48;8.82;;;24.00;64.30;;;;;;5054503;28;20474;-80
2021/09/04 10:40:45;;;;;;;11.25;6.93;;;24.00;60.90;;;;;;5053877;28;20044;-81
2021/09/04 10:43:13;;;;;;;13.27;8.73;;;23.90;63.60;;;;;;5055391;28;20096;-80
2021/09/04 10:45:38;;;;;;;9.82;6.63;;;24.00;62.40;;;;;;5055320;28;20017;-79
2021/09/04 10:48:18;;;;;;;10.82;7.22;;;24.10;62.60;;;;;;5054702;28;20025;-80
2021/09/04 10:51:04;;;;;;;;;;;24.30;62.30;;;;;;5055422;28;20024;-80
2021/09/04 10:53:47;;;;;;;11.45;7.05;;;24.40;60.60;;;;;;5054293;28;20264;-78
2021/09/04 10:56:31;;;;;;;8.93;5.97;;;24.30;59.80;;;;;;5056836;28;20025;-79
2021/09/04 10:58:57;;;;;;;10.07;7.38;;;24.50;60.40;;;;;;5055112;28;20063;-79
2021/09/04 11:01:52;;;;;;;12.27;8.13;;;24.70;60.00;;;;;;5054750;28;20094;-79
2021/09/04 11:04:18;;;;;;;13.05;7.40;;;24.70;57.80;;;;;;5054772;28;20031;-80
2021/09/04 11:06:49;;;;;;;12.15;7.63;;;24.70;58.80;;;;;;5054406;28;20473;-79
2021/09/04 11:09:15;;;;;;;16.08;9.00;;;24.80;58.30;;;;;;5054996;28;20355;-80
2021/09/04 11:11:42;;;;;;;11.35;7.40;;;24.90;55.80;;;;;;5055387;28;20462;-80
2021/09/04 11:14:45;;;;;;;10.32;7.18;;;24.90;57.00;;;;;;5055638;28;20048;-79
2021/09/04 11:17:16;;;;;;;13.48;7.68;;;25.00;57.70;;;;;;5055382;28;20115;-79
2021/09/04 11:19:43;;;;;;;13.82;7.28;;;25.10;57.00;;;;;;5054690;28;20017;-79
2021/09/04 11:22:13;;;;;;;14.23;8.98;;;25.30;57.50;;;;;;5055313;28;20059;-79
2021/09/04 11:24:40;;;;;;;;;;;25.60;56.90;;;;;;5057345;28;20025;-78
2021/09/04 11:27:11;;;;;;;9.73;6.30;;;25.60;53.80;;;;;;5059358;28;19912;-79
2021/09/04 11:29:40;;;;;;;13.20;8.10;;;25.60;56.10;;;;;;5059964;28;20525;-80
2021/09/04 11:32:06;;;;;;;10.65;6.43;;;25.70;54.40;;;;;;5054210;28;20029;-79
2021/09/04 11:34:36;;;;;;;8.98;5.90;;;25.60;55.50;;;;;;5053670;28;20389;-79
2021/09/04 11:37:41;;;;;;;10.50;7.20;;;25.70;56.40;;;;;;5054734;28;20021;-79
2021/09/04 11:40:15;;;;;;;11.77;6.20;;;26.10;54.90;;;;;;5032329;28;20025;-79
2021/09/04 11:42:43;;;;;;;11.55;6.72;;;26.20;54.90;;;;;;5032742;28;20030;-79
2021/09/04 11:45:11;;;;;;;11.23;6.25;;;26.40;53.40;;;;;;5035614;28;20454;-79
2021/09/04 11:47:39;;;;;;;9.50;5.82;;;26.30;54.60;;;;;;5058483;28;20021;-80
2021/09/04 11:50:07;;;;;;;10.35;6.45;;;26.40;54.80;;;;;;5069463;28;20024;-79
2021/09/04 11:52:40;;;;;;;10.98;6.53;;;26.50;55.20;;;;;;5053896;28;20025;-79
2021/09/04 11:55:06;;;;;;;10.23;6.10;;;26.50;55.50;;;;;;5054413;28;20152;-79
2021/09/04 11:57:35;;;;;;;14.40;7.50;;;26.40;55.80;;;;;;5053701;28;20052;-78
2021/09/04 12:00:09;;;;;;;15.68;8.02;;;26.40;54.20;;;;;;5053335;28;20104;-80
2021/09/04 12:02:36;;;;;;;12.75;7.80;;;26.30;52.60;;;;;;5052602;28;20028;-78
2021/09/04 12:05:04;;;;;;;10.00;5.68;;;26.30;53.50;;;;;;5052894;28;20023;-78
2021/09/04 12:07:31;;;;;;;11.50;6.68;;;26.30;55.20;;;;;;5053398;28;20028;-79
2021/09/04 12:09:57;;;;;;;11.10;6.18;;;26.20;54.50;;;;;;5054017;28;20105;-79
2021/09/04 12:12:25;;;;;;;9.48;6.05;;;26.10;55.90;;;;;;5053058;28;20096;-78
2021/09/04 12:14:52;;;;;;;12.43;6.32;;;26.20;55.60;;;;;;5052654;28;20048;-79
2021/09/04 12:17:17;;;;;;;12.45;7.43;;;26.50;55.70;;;;;;5053943;28;20028;-79
2021/09/04 12:19:43;;;;;;;11.60;7.85;;;26.70;55.40;;;;;;5053688;28;20472;-79
2021/09/04 12:22:09;;;;;;;15.00;10.88;;;26.90;54.10;;;;;;5052315;28;20036;-80
2021/09/04 12:24:34;;;;;;;12.55;6.65;;;27.00;49.30;;;;;;5053484;28;20029;-79
2021/09/04 12:27:02;;;;;;;12.75;7.05;;;27.00;53.90;;;;;;5053804;28;20035;-80
2021/09/04 12:29:30;;;;;;;12.20;5.90;;;27.00;53.40;;;;;;5052714;28;20029;-79
2021/09/04 12:32:07;;;;;;;11.00;7.03;;;27.00;54.40;;;;;;5052895;28;20021;-79